createdAt,value
2022-10-24T00:04:19.738Z,65.30
2022-10-24T00:14:26.109Z,64.90
2022-10-24T00:24:32.418Z,58.10
2022-10-24T00:34:38.909Z,59.10
2022-10-24T00:44:45.884Z,57.80
2022-10-24T00:54:52.920Z,62.30
2022-10-24T01:04:59.244Z,54.70
2022-10-24T01:15:22.805Z,55.80
2022-10-24T01:25:41.647Z,49.80
2022-10-24T01:35:53.008Z,50.65
2022-10-24T01:46:03.223Z,52.40
2022-10-24T01:56:09.523Z,46.00
2022-10-24T02:06:28.276Z,46.70
2022-10-24T02:16:35.534Z,49.70
2022-10-24T02:27:17.290Z,46.60
2022-10-24T02:37:24.822Z,44.70
2022-10-24T02:47:32.640Z,46.20
2022-10-24T02:57:39.191Z,45.50
2022-10-24T03:07:45.455Z,49.90
2022-10-24T03:17:51.699Z,52.10
2022-10-24T03:27:58.017Z,32.70
2022-10-24T03:38:04.319Z,46.90
2022-10-24T03:48:10.630Z,54.90
2022-10-24T03:58:16.927Z,64.80
2022-10-24T04:08:23.179Z,61.40
2022-10-24T04:18:29.669Z,54.90
2022-10-24T04:28:35.997Z,48.20
2022-10-24T04:38:42.244Z,31.00
2022-10-24T04:48:48.495Z,26.20
2022-10-24T04:58:54.802Z,25.20
2022-10-24T05:09:01.072Z,25.10
2022-10-24T05:19:07.565Z,27.30
2022-10-24T05:29:14.027Z,29.50
2022-10-24T05:39:20.511Z,27.70
2022-10-24T05:49:26.804Z,29.20
2022-10-24T05:59:33.097Z,26.60
2022-10-24T06:09:41.843Z,25.50
2022-10-24T06:19:50.287Z,32.40
2022-10-24T06:29:56.535Z,27.10
2022-10-24T06:40:02.820Z,26.60
2022-10-24T06:50:09.360Z,23.40
2022-10-24T07:00:16.193Z,23.90
2022-10-24T07:10:22.544Z,28.00
2022-10-24T07:20:28.945Z,28.50
2022-10-24T07:30:35.402Z,27.60
2022-10-24T07:40:41.663Z,25.10
2022-10-24T07:50:49.041Z,24.70
2022-10-24T08:00:55.403Z,23.90
2022-10-24T08:21:13.523Z,25.80
2022-10-24T08:31:22.537Z,21.80
2022-10-24T08:41:38.185Z,19.30
2022-10-24T08:51:52.023Z,21.30
2022-10-24T09:02:18.975Z,19.10
2022-10-24T09:12:25.473Z,17.60
2022-10-24T09:22:33.936Z,17.50
2022-10-24T09:32:40.238Z,20.90
2022-10-24T09:42:58.513Z,20.20
2022-10-24T09:53:05.965Z,23.10
2022-10-24T10:03:23.904Z,21.40
2022-10-24T10:13:31.714Z,18.60
2022-10-24T10:23:42.210Z,18.50
2022-10-24T10:34:08.187Z,20.20
2022-10-24T10:44:36.372Z,19.80
2022-10-24T10:55:08.865Z,20.60
2022-10-24T11:05:45.943Z,20.20
2022-10-24T11:15:55.538Z,23.60
2022-10-24T11:26:35.435Z,16.30
2022-10-24T11:36:55.750Z,19.10
2022-10-24T11:47:25.660Z,14.70
2022-10-24T11:57:32.689Z,16.90
2022-10-24T12:08:00.471Z,19.85
2022-10-24T12:18:27.995Z,18.10
2022-10-24T12:28:34.800Z,18.70
2022-10-24T12:38:41.296Z,17.10
2022-10-24T12:48:59.759Z,15.60
2022-10-24T12:59:20.437Z,16.20
2022-10-24T13:09:36.477Z,18.20
2022-10-24T13:19:42.858Z,15.90
2022-10-24T13:29:52.172Z,21.30
2022-10-24T13:40:33.856Z,20.50
2022-10-24T13:50:47.394Z,21.10
2022-10-24T14:01:18.529Z,18.40
2022-10-24T14:11:26.988Z,14.10
2022-10-24T14:21:41.441Z,10.40
2022-10-24T14:31:47.712Z,20.20
2022-10-24T14:41:54.511Z,19.80
2022-10-24T14:52:15.762Z,19.50
2022-10-24T15:02:21.904Z,23.70
2022-10-24T15:13:05.015Z,25.60
2022-10-24T15:23:22.837Z,25.60
2022-10-24T15:33:29.163Z,23.90
2022-10-24T15:43:36.018Z,20.00
2022-10-24T15:53:43.013Z,19.90
2022-10-24T16:03:49.322Z,34.50
2022-10-24T17:16:50.150Z,31.85
2022-10-24T17:26:56.671Z,31.20
2022-10-24T17:37:21.484Z,30.80
2022-10-24T17:47:27.800Z,34.20
2022-10-24T17:57:34.144Z,32.20
2022-10-24T18:07:40.472Z,32.70
2022-10-24T18:17:47.482Z,30.10
2022-10-24T18:27:54.030Z,34.70
2022-10-24T18:38:00.395Z,31.10
2022-10-24T18:48:06.933Z,31.60
2022-10-24T18:58:14.999Z,36.60
2022-10-24T19:08:23.564Z,35.30
2022-10-24T19:18:31.986Z,29.50
2022-10-24T19:28:38.298Z,29.00
2022-10-24T19:38:44.633Z,28.50
2022-10-24T19:48:51.454Z,30.70
2022-10-24T19:58:57.792Z,29.30
2022-10-24T20:09:04.097Z,31.60
2022-10-24T20:19:10.407Z,35.90
2022-10-24T20:29:16.784Z,31.40
2022-10-24T20:39:23.326Z,36.20
2022-10-24T20:49:29.572Z,38.90
2022-10-24T20:59:35.882Z,33.80
2022-10-24T21:09:42.159Z,29.10
2022-10-24T21:19:48.489Z,32.90
2022-10-24T21:29:54.742Z,32.90
2022-10-24T21:40:01.013Z,26.80
2022-10-24T21:50:07.396Z,27.70
2022-10-24T22:00:20.573Z,30.60
2022-10-24T22:10:26.818Z,30.30
2022-10-24T22:20:33.067Z,28.90
2022-10-24T22:30:40.483Z,28.70
2022-10-24T22:40:47.378Z,31.60
2022-10-24T22:50:56.000Z,33.20
2022-10-24T23:01:06.882Z,34.60
2022-10-24T23:11:14.224Z,37.30
2022-10-24T23:21:28.398Z,37.30
2022-10-24T23:31:34.770Z,35.90
2022-10-24T23:41:41.562Z,38.10
2022-10-24T23:52:15.447Z,32.60
